Time;durP1;ratioP1;P1;durP2;ratioP2;P2;SDS_P1;SDS_P2;PMS_P1;PMS_P2;Temp;Humidity;BMP_temperature;BMP_pressure;BME280_temperature;BME280_humidity;BME280_pressure;Samples;Min_cycle;Max_cycle;Signal;HPM_P1;HPM_P2
2021/04/10 09:24:41;;;;;;;13.68;9.10;;;15.90;96.60;;;;;;5100031;27;20366;-67
2021/04/10 09:27:08;;;;;;;11.98;8.25;;;16.00;96.30;;;;;;5082586;28;20032;-67
2021/04/10 09:29:47;;;;;;;14.52;8.55;;;16.20;96.10;;;;;;5076818;28;20498;-67
2021/04/10 09:32:26;;;;;;;12.23;7.32;;;16.30;95.70;;;;;;5087502;28;20076;-68
2021/04/10 09:35:10;;;;;;;12.02;7.28;;;16.60;94.90;;;;;;5086346;28;20020;-66
2021/04/10 09:37:36;;;;;;;13.38;7.25;;;16.80;94.40;;;;;;5088843;28;20468;-63
2021/04/10 09:40:06;;;;;;;12.30;7.57;;;17.10;94.20;;;;;;5086928;28;20020;-65
2021/04/10 09:42:53;;;;;;;11.00;7.03;;;17.20;94.00;;;;;;5087447;28;20021;-64
2021/04/10 09:45:22;;;;;;;9.43;5.68;;;17.30;93.60;;;;;;5086845;28;20020;-64
2021/04/10 09:50:29;;;;;;;14.07;5.82;;;17.60;93.30;;;;;;5085887;28;20501;-67
2021/04/10 09:52:56;;;;;;;8.43;5.75;;;17.80;93.00;;;;;;5084652;28;20491;-64
2021/04/10 09:55:23;;;;;;;13.45;5.55;;;17.80;92.80;;;;;;5088443;28;20016;-65
2021/04/10 09:58:00;;;;;;;8.57;5.00;;;17.90;92.70;;;;;;5086991;28;20582;-65
2021/04/10 10:00:31;;;;;;;9.75;5.18;;;18.00;92.50;;;;;;5085745;28;20024;-63
2021/04/10 10:02:59;;;;;;;8.45;5.10;;;18.10;92.40;;;;;;5089666;28;20028;-66
2021/04/10 10:05:29;;;;;;;9.88;4.60;;;18.20;92.20;;;;;;5086990;28;20380;-64
2021/04/10 10:08:03;;;;;;;6.22;4.53;;;18.30;92.40;;;;;;5090474;28;20486;-67
2021/04/10 10:10:31;;;;;;;9.90;4.30;;;18.40;91.90;;;;;;5086151;28;21422;-67
2021/04/10 10:13:04;;;;;;;7.35;3.90;;;18.50;92.00;;;;;;5086599;28;20032;-67
2021/04/10 10:15:30;;;;;;;6.57;4.17;;;18.60;91.60;;;;;;5087493;28;20025;-68
2021/04/10 10:17:56;;;;;;;6.28;3.63;;;18.70;91.80;;;;;;5099890;28;20024;-68
2021/04/10 10:20:21;;;;;;;6.63;3.92;;;18.70;91.80;;;;;;5087842;28;20032;-66
2021/04/10 10:22:47;;;;;;;6.57;3.47;;;18.70;91.40;;;;;;5089355;28;20036;-67
2021/04/10 10:25:13;;;;;;;6.68;3.08;;;18.80;91.20;;;;;;5104068;28;20107;-66
2021/04/10 10:27:42;;;;;;;5.95;3.53;;;18.90;91.10;;;;;;5087824;28;20032;-68
2021/04/10 10:30:18;;;;;;;5.57;3.28;;;18.90;91.00;;;;;;5087068;28;20033;-67
2021/04/10 10:32:45;;;;;;;7.57;3.80;;;18.90;91.20;;;;;;5086976;28;20016;-65
2021/04/10 10:35:11;;;;;;;6.93;4.15;;;18.80;91.30;;;;;;5079885;28;20028;-65
2021/04/10 10:37:37;;;;;;;8.52;3.63;;;18.90;91.00;;;;;;5076911;28;20033;-65
2021/04/10 10:40:04;;;;;;;4.57;3.33;;;19.00;90.90;;;;;;5073347;28;20036;-66
2021/04/10 10:42:30;;;;;;;6.40;3.70;;;19.10;90.90;;;;;;5063696;28;20037;-66
2021/04/10 10:44:55;;;;;;;5.28;3.50;;;19.10;90.70;;;;;;5074130;28;20028;-67
2021/04/10 10:47:25;;;;;;;5.10;3.22;;;19.30;90.60;;;;;;5073296;28;20040;-65
2021/04/10 10:49:54;;;;;;;5.78;3.65;;;19.40;90.40;;;;;;5072590;28;20032;-67
2021/04/10 10:52:20;;;;;;;4.20;3.42;;;19.40;90.30;;;;;;5074443;28;20021;-64
2021/04/10 10:54:49;;;;;;;6.25;3.45;;;19.50;90.20;;;;;;5086418;28;20032;-64
2021/04/10 10:57:16;;;;;;;4.82;3.30;;;19.60;90.40;;;;;;5087611;28;20480;-66
2021/04/10 10:59:43;;;;;;;6.68;3.63;;;19.70;90.00;;;;;;5093983;28;20031;-66
2021/04/10 11:02:09;;;;;;;6.25;3.90;;;19.70;89.90;;;;;;5091411;28;20016;-68
2021/04/10 11:04:36;;;;;;;4.88;3.08;;;19.80;89.80;;;;;;5073738;28;20036;-64
2021/04/10 11:07:05;;;;;;;5.00;3.35;;;19.90;89.70;;;;;;5073577;28;20024;-64
2021/04/10 11:09:34;;;;;;;4.55;3.30;;;19.90;89.50;;;;;;5073538;28;20024;-66
2021/04/10 11:12:14;;;;;;;5.07;3.20;;;20.00;89.40;;;;;;5087737;28;20039;-63
2021/04/10 11:14:42;;;;;;;4.68;2.90;;;20.00;89.30;;;;;;5073393;28;20492;-65
2021/04/10 11:17:10;;;;;;;4.30;2.80;;;20.10;89.10;;;;;;5073573;28;20021;-66
2021/04/10 11:19:40;;;;;;;4.90;3.08;;;20.20;89.00;;;;;;5073265;28;20503;-65
2021/04/10 11:22:08;;;;;;;5.70;2.75;;;20.20;88.80;;;;;;5072959;28;20107;-66
2021/04/10 11:24:38;;;;;;;4.32;3.03;;;20.30;88.70;;;;;;5073885;28;20046;-68
2021/04/10 11:27:16;;;;;;;4.97;2.53;;;20.40;88.70;;;;;;5073544;28;20377;-66
2021/04/10 11:29:48;;;;;;;6.32;2.63;;;20.50;88.60;;;;;;5073224;28;20425;-67
2021/04/10 11:32:19;;;;;;;5.28;2.92;;;20.50;88.40;;;;;;5073222;28;20060;-64
2021/04/10 11:34:51;;;;;;;4.10;2.25;;;20.60;88.30;;;;;;5073174;28;20032;-67
2021/04/10 11:37:38;;;;;;;5.18;2.45;;;20.70;88.30;;;;;;5073108;28;20020;-69
2021/04/10 11:40:21;;;;;;;3.72;2.10;;;20.70;88.20;;;;;;5081791;28;20067;-68
2021/04/10 11:42:53;;;;;;;3.70;2.40;;;20.80;88.10;;;;;;5073126;28;20457;-67
2021/04/10 11:45:35;;;;;;;3.75;2.33;;;20.80;88.00;;;;;;5072894;28;20468;-64
2021/04/10 11:48:11;;;;;;;2.83;2.17;;;20.90;88.00;;;;;;5072863;28;20484;-66
2021/04/10 11:51:03;;;;;;;4.43;2.70;;;21.00;87.90;;;;;;5072880;28;20033;-67
2021/04/10 11:53:35;;;;;;;3.38;2.08;;;21.10;88.00;;;;;;5085727;28;20032;-65
2021/04/10 11:56:31;;;;;;;4.93;2.45;;;21.10;88.00;;;;;;5076306;28;20051;-67
2021/04/10 11:59:02;;;;;;;4.15;2.40;;;21.20;88.10;;;;;;5073226;28;20032;-64
2021/04/10 12:01:28;;;;;;;3.72;2.17;;;21.30;88.10;;;;;;5073108;28;20032;-66
2021/04/10 12:03:56;;;;;;;3.53;2.00;;;21.30;88.10;;;;;;5072337;28;20062;-67
2021/04/10 12:06:29;;;;;;;3.42;2.20;;;21.40;88.00;;;;;;5072356;28;20388;-67
2021/04/10 12:08:59;;;;;;;4.45;2.30;;;21.40;88.00;;;;;;5074558;28;20032;-67
2021/04/10 12:11:24;;;;;;;3.53;2.45;;;21.50;88.00;;;;;;5073276;28;20107;-67
2021/04/10 12:13:50;;;;;;;3.22;1.98;;;21.60;88.20;;;;;;5072069;28;20162;-67
2021/04/10 12:16:16;;;;;;;4.03;2.53;;;21.60;88.10;;;;;;5072070;28;20031;-65
2021/04/10 12:18:42;;;;;;;5.35;2.40;;;21.60;88.10;;;;;;5072458;28;20028;-68
2021/04/10 12:21:09;;;;;;;3.38;1.92;;;21.70;88.10;;;;;;5080255;28;20380;-68
2021/04/10 12:23:35;;;;;;;4.45;2.33;;;21.80;88.20;;;;;;5092309;28;20114;-65
2021/04/10 12:26:02;;;;;;;4.85;2.30;;;21.80;88.20;;;;;;5092624;28;20188;-68
2021/04/10 12:28:29;;;;;;;3.47;2.10;;;21.80;88.20;;;;;;5092111;28;20114;-68
2021/04/10 12:30:55;;;;;;;2.97;2.03;;;21.90;88.20;;;;;;5084148;28;20578;-69
2021/04/10 12:33:21;;;;;;;2.67;1.92;;;21.90;88.20;;;;;;5071867;28;20170;-68
2021/04/10 12:35:47;;;;;;;3.58;2.10;;;22.00;88.90;;;;;;5071726;28;20058;-66
2021/04/10 12:38:12;;;;;;;4.40;1.90;;;22.00;88.10;;;;;;5080826;28;20064;-69
2021/04/10 12:40:38;;;;;;;3.25;1.98;;;22.00;88.20;;;;;;5070528;28;20074;-68
2021/04/10 12:43:04;;;;;;;3.83;2.17;;;22.00;88.30;;;;;;5071834;28;20040;-69
2021/04/10 12:45:29;;;;;;;3.78;2.17;;;22.10;88.30;;;;;;5072281;28;20032;-69
2021/04/10 12:47:55;;;;;;;3.15;1.50;;;22.10;88.20;;;;;;5071544;28;20099;-70
2021/04/10 12:50:23;;;;;;;7.30;2.38;;;22.10;88.30;;;;;;5073856;28;20032;-70
2021/04/10 12:52:49;;;;;;;4.30;1.83;;;22.00;88.70;;;;;;5084871;28;20036;-69
2021/04/10 12:55:15;;;;;;;3.88;1.70;;;21.90;89.10;;;;;;5073309;28;20115;-71
2021/04/10 12:57:41;;;;;;;5.13;2.28;;;22.00;89.20;;;;;;5077333;28;20483;-71
2021/04/10 13:00:09;;;;;;;4.07;1.80;;;21.90;89.10;;;;;;5067011;28;20056;-69
2021/04/10 13:02:34;;;;;;;4.43;1.70;;;21.90;89.30;;;;;;5071551;28;20024;-63
2021/04/10 13:05:00;;;;;;;4.88;1.50;;;21.80;89.60;;;;;;5071907;28;20048;-65
2021/04/10 13:07:26;;;;;;;4.45;1.80;;;21.80;91.10;;;;;;5077259;28;20468;-62
2021/04/10 13:09:52;;;;;;;3.22;1.55;;;21.80;90.20;;;;;;5077617;28;20048;-64
2021/04/10 13:12:18;;;;;;;3.65;1.70;;;21.90;90.10;;;;;;5054791;28;20473;-63
2021/04/10 13:14:44;;;;;;;3.72;1.83;;;21.80;90.00;;;;;;5070160;28;20032;-66
2021/04/10 13:17:13;;;;;;;2.78;1.77;;;22.00;90.20;;;;;;5068291;28;20095;-65
2021/04/10 13:19:39;;;;;;;3.58;1.80;;;21.90;90.10;;;;;;5071356;28;20029;-64
2021/04/10 13:22:06;;;;;;;3.88;1.48;;;21.90;90.10;;;;;;5064827;28;20111;-66
2021/04/10 13:24:32;;;;;;;4.03;1.48;;;21.80;90.20;;;;;;5057715;28;20032;-66
2021/04/10 13:26:58;;;;;;;5.15;1.73;;;21.80;90.20;;;;;;5068892;28;20424;-64
2021/04/10 13:29:24;;;;;;;2.47;1.45;;;21.70;90.40;;;;;;5061290;28;20028;-65
2021/04/10 13:31:49;;;;;;;3.13;1.85;;;21.60;90.40;;;;;;5068482;28;20048;-70
2021/04/10 13:34:16;;;;;;;4.85;1.50;;;21.50;90.40;;;;;;5059365;28;20044;-71
2021/04/10 13:36:42;;;;;;;3.03;1.40;;;21.50;90.50;;;;;;5067352;28;20033;-69
2021/04/10 13:39:09;;;;;;;2.83;1.60;;;21.40;90.50;;;;;;5065417;28;20526;-69
2021/04/10 13:41:36;;;;;;;2.75;1.70;;;21.40;90.70;;;;;;5057588;28;20029;-70
2021/04/10 13:44:04;;;;;;;2.20;1.35;;;21.30;90.70;;;;;;5057174;28;20035;-71
2021/04/10 13:46:29;;;;;;;5.15;1.88;;;21.20;90.70;;;;;;5071048;28;20028;-65
2021/04/10 13:48:55;;;;;;;3.38;1.42;;;21.20;90.90;;;;;;5069132;28;20024;-64
2021/04/10 13:51:21;;;;;;;2.42;1.52;;;21.20;90.90;;;;;;5068081;28;20036;-64
2021/04/10 13:53:46;;;;;;;2.03;1.30;;;21.10;90.90;;;;;;5053214;28;20037;-63
2021/04/10 13:56:12;;;;;;;2.25;1.50;;;21.10;91.00;;;;;;5059561;28;20028;-64
2021/04/10 13:58:38;;;;;;;3.95;1.77;;;21.00;91.00;;;;;;5069242;28;20476;-65
2021/04/10 14:01:04;;;;;;;3.92;1.58;;;21.10;91.10;;;;;;5055846;28;20131;-66
2021/04/10 14:03:30;;;;;;;2.50;1.50;;;21.00;91.10;;;;;;5056510;28;20036;-64
2021/04/10 14:05:56;;;;;;;2.17;1.52;;;20.90;91.20;;;;;;5069878;28;20028;-65
2021/04/10 14:08:22;;;;;;;2.00;1.40;;;20.90;91.20;;;;;;5052424;28;20039;-67
2021/04/10 14:10:49;;;;;;;2.65;1.40;;;20.90;91.20;;;;;;5060869;28;20020;-66
2021/04/10 14:13:15;;;;;;;2.25;1.30;;;20.90;91.50;;;;;;5056528;28;20025;-67
2021/04/10 14:15:42;;;;;;;4.18;1.38;;;20.80;91.50;;;;;;5070193;28;20032;-66
2021/04/10 14:18:09;;;;;;;3.42;1.65;;;20.80;91.40;;;;;;5058748;28;20483;-64
2021/04/10 14:20:39;;;;;;;2.25;1.40;;;20.80;91.40;;;;;;5074617;28;20384;-66
2021/04/10 14:23:07;;;;;;;2.90;1.60;;;20.80;91.30;;;;;;5067277;28;20036;-67
2021/04/10 14:25:34;;;;;;;3.00;1.70;;;20.80;91.30;;;;;;5074320;28;20027;-63
2021/04/10 14:28:00;;;;;;;2.35;1.38;;;20.70;91.00;;;;;;5069084;28;20032;-67
2021/04/10 14:30:29;;;;;;;3.33;2.00;;;20.70;91.00;;;;;;5065290;28;20032;-67
2021/04/10 14:32:55;;;;;;;3.83;1.92;;;20.70;91.00;;;;;;5062333;28;20063;-61
2021/04/10 14:35:25;;;;;;;4.03;1.67;;;20.70;91.50;;;;;;5069771;28;20085;-65
2021/04/10 14:37:51;;;;;;;5.63;1.80;;;20.60;91.20;;;;;;5053781;28;20021;-64
2021/04/10 14:40:17;;;;;;;4.85;2.00;;;20.60;91.10;;;;;;5061573;28;20774;-66
2021/04/10 14:42:43;;;;;;;4.65;2.03;;;20.60;91.10;;;;;;5074016;28;20062;-63
2021/04/10 14:45:10;;;;;;;4.15;2.42;;;20.50;91.10;;;;;;5073178;28;20044;-65
2021/04/10 14:47:37;;;;;;;7.15;2.42;;;20.50;91.10;;;;;;5068141;28;20032;-63
2021/04/10 14:50:04;;;;;;;14.88;2.22;;;20.50;91.30;;;;;;5059010;28;20083;-63
2021/04/10 14:52:30;;;;;;;4.68;2.08;;;20.50;91.70;;;;;;5074313;28;20024;-66
2021/04/10 14:54:56;;;;;;;3.28;2.00;;;20.50;91.70;;;;;;5058347;28;20102;-68
2021/04/10 14:57:21;;;;;;;4.00;1.70;;;20.50;91.20;;;;;;5060594;28;20036;-68
2021/04/10 14:59:47;;;;;;;4.03;2.05;;;20.40;91.10;;;;;;5060932;28;20511;-63
2021/04/10 15:02:12;;;;;;;4.25;2.10;;;20.30;91.00;;;;;;5073448;28;20060;-66
2021/04/10 15:04:38;;;;;;;4.65;2.10;;;20.30;91.10;;;;;;5063610;28;20465;-68
2021/04/10 15:07:03;;;;;;;5.80;1.85;;;20.30;91.10;;;;;;5065728;28;20017;-66
2021/04/10 15:09:29;;;;;;;2.88;2.00;;;20.30;91.20;;;;;;5061214;28;20501;-69
2021/04/10 15:11:55;;;;;;;2.53;1.90;;;20.30;91.20;;;;;;5063369;28;20370;-67
2021/04/10 15:14:20;;;;;;;3.90;1.80;;;20.20;91.10;;;;;;5075687;28;20036;-69
2021/04/10 15:16:46;;;;;;;4.22;2.00;;;20.30;91.10;;;;;;5073385;28;20099;-68
2021/04/10 15:19:12;;;;;;;3.70;1.73;;;20.20;91.30;;;;;;5070459;28;20021;-68
2021/04/10 15:21:39;;;;;;;2.47;1.38;;;20.20;91.30;;;;;;5067224;28;20021;-69
2021/04/10 15:24:07;;;;;;;3.13;1.88;;;20.20;91.30;;;;;;5081167;28;20036;-68
2021/04/10 15:26:34;;;;;;;3.92;1.70;;;20.20;91.30;;;;;;5069775;28;20025;-62
2021/04/10 15:29:00;;;;;;;2.83;1.60;;;20.10;91.30;;;;;;5059041;28;20029;-68
2021/04/10 15:31:26;;;;;;;2.28;1.50;;;20.20;91.40;;;;;;5064402;28;20513;-62
2021/04/10 15:33:54;;;;;;;4.88;1.55;;;20.10;91.30;;;;;;5072729;28;20097;-62
2021/04/10 15:36:22;;;;;;;2.40;1.50;;;20.10;91.40;;;;;;5052289;28;20020;-61
2021/04/10 15:38:48;;;;;;;2.45;1.35;;;20.10;91.50;;;;;;5064251;28;20481;-63
2021/04/10 15:41:16;;;;;;;3.38;1.40;;;20.10;91.50;;;;;;5055449;28;20081;-61
2021/04/10 15:43:42;;;;;;;4.63;1.52;;;20.10;91.70;;;;;;5067342;28;20115;-62
2021/04/10 15:46:08;;;;;;;2.03;1.27;;;20.10;91.70;;;;;;5072300;28;20024;-61
2021/04/10 15:48:34;;;;;;;2.35;1.30;;;20.10;91.80;;;;;;5057552;28;20456;-62
2021/04/10 15:51:00;;;;;;;2.15;1.33;;;20.10;91.90;;;;;;5073319;28;20021;-62
2021/04/10 15:53:26;;;;;;;3.63;1.60;;;20.10;91.90;;;;;;5066240;28;20435;-62
2021/04/10 15:55:54;;;;;;;4.45;1.40;;;20.20;91.80;;;;;;5072527;28;20028;-64
2021/04/10 15:58:19;;;;;;;3.38;1.30;;;20.10;91.60;;;;;;5056009;28;20028;-64
2021/04/10 16:00:45;;;;;;;5.20;1.48;;;20.10;91.90;;;;;;5053726;28;20099;-67
2021/04/10 16:03:11;;;;;;;2.28;1.48;;;20.10;91.80;;;;;;5059352;28;20021;-65
2021/04/10 16:05:40;;;;;;;2.15;1.25;;;20.10;92.00;;;;;;5066429;28;20060;-68
2021/04/10 16:08:06;;;;;;;2.05;1.50;;;20.10;91.80;;;;;;5057631;28;20021;-65
2021/04/10 16:10:33;;;;;;;4.40;1.15;;;20.10;91.80;;;;;;5057165;28;20036;-63
2021/04/10 16:12:58;;;;;;;6.88;1.67;;;20.10;91.60;;;;;;5067102;28;20560;-64
2021/04/10 16:15:26;;;;;;;4.30;1.27;;;20.00;91.80;;;;;;5061086;28;20100;-65
2021/04/10 16:17:51;;;;;;;5.10;1.35;;;20.00;91.90;;;;;;5064647;28;20395;-63
2021/04/10 16:20:18;;;;;;;5.63;1.10;;;20.00;91.70;;;;;;5070127;28;20624;-62
2021/04/10 16:22:44;;;;;;;2.13;1.40;;;20.00;91.90;;;;;;5059779;28;20036;-65
2021/04/10 16:25:10;;;;;;;2.33;1.10;;;19.90;91.70;;;;;;5062273;28;20033;-64
2021/04/10 16:27:36;;;;;;;4.05;1.42;;;19.90;91.90;;;;;;5065778;28;20074;-63
2021/04/10 16:30:02;;;;;;;2.22;1.58;;;19.90;91.90;;;;;;5071878;28;20032;-65
2021/04/10 16:32:28;;;;;;;3.33;1.50;;;19.90;91.80;;;;;;5071042;28;20120;-60
2021/04/10 16:34:54;;;;;;;3.13;1.60;;;19.90;91.70;;;;;;5072234;28;20107;-60
2021/04/10 16:37:19;;;;;;;3.50;1.52;;;19.90;91.30;;;;;;5070338;28;20075;-60
2021/04/10 16:39:46;;;;;;;1.75;1.25;;;19.80;91.30;;;;;;5066710;28;20074;-60
2021/04/10 16:42:12;;;;;;;2.28;1.35;;;19.80;91.40;;;;;;5071907;28;20024;-62
2021/04/10 16:44:38;;;;;;;2.10;1.30;;;19.70;91.40;;;;;;5071780;28;20031;-62
2021/04/10 16:47:03;;;;;;;5.55;1.30;;;19.70;91.50;;;;;;5071889;28;20028;-64
2021/04/10 16:49:29;;;;;;;2.28;1.25;;;19.80;92.00;;;;;;5071892;28;20107;-65
2021/04/10 16:51:55;;;;;;;3.30;1.40;;;19.70;91.80;;;;;;5062138;28;20504;-63
2021/04/10 16:54:20;;;;;;;3.10;1.27;;;19.80;91.70;;;;;;5051768;28;20045;-68
2021/04/10 16:56:46;;;;;;;4.45;1.65;;;19.80;92.00;;;;;;5053986;28;20076;-63
2021/04/10 16:59:11;;;;;;;2.53;1.35;;;19.80;92.00;;;;;;5051734;28;20037;-62
2021/04/10 17:01:37;;;;;;;3.08;1.42;;;19.80;92.10;;;;;;5051516;28;20532;-63
2021/04/10 17:04:03;;;;;;;4.05;1.80;;;19.80;92.30;;;;;;5059443;28;20028;-63
2021/04/10 17:06:28;;;;;;;2.67;1.75;;;19.80;92.40;;;;;;5052094;28;20408;-64
2021/04/10 17:08:54;;;;;;;4.43;1.70;;;19.80;92.40;;;;;;5071824;28;20054;-62
2021/04/10 17:11:20;;;;;;;8.15;1.92;;;19.80;92.50;;;;;;5073026;28;20385;-63
2021/04/10 17:13:46;;;;;;;4.38;1.45;;;19.80;92.60;;;;;;5059701;28;20040;-63
2021/04/10 17:16:12;;;;;;;4.93;1.60;;;19.80;92.60;;;;;;5074570;28;20100;-62
2021/04/10 17:18:38;;;;;;;2.00;1.30;;;19.80;92.60;;;;;;5062709;28;20355;-62
2021/04/10 17:21:05;;;;;;;3.40;1.33;;;19.70;92.80;;;;;;5070675;28;20488;-64
2021/04/10 17:23:31;;;;;;;3.30;1.35;;;19.70;92.90;;;;;;5066797;28;20039;-67
2021/04/10 17:25:56;;;;;;;3.83;1.65;;;19.70;92.80;;;;;;5062855;28;20082;-63
2021/04/10 17:28:22;;;;;;;3.85;1.48;;;19.70;92.90;;;;;;5051631;28;20370;-63
2021/04/10 17:30:48;;;;;;;10.70;1.80;;;19.70;93.10;;;;;;5053814;28;21703;-63
2021/04/10 17:33:14;;;;;;;3.15;1.77;;;19.70;92.80;;;;;;5069655;28;20052;-63
2021/04/10 17:35:41;;;;;;;2.58;1.73;;;19.50;91.20;;;;;;5082919;28;20108;-68
2021/04/10 17:38:08;;;;;;;6.63;1.90;;;19.40;91.20;;;;;;5078062;28;20033;-68
2021/04/10 17:40:33;;;;;;;4.05;2.00;;;19.40;91.80;;;;;;5073040;28;20055;-67
2021/04/10 17:42:59;;;;;;;2.85;1.65;;;19.30;91.40;;;;;;5055953;28;20492;-70
2021/04/10 17:45:28;;;;;;;2.67;1.73;;;19.30;91.40;;;;;;5058382;28;20360;-70
2021/04/10 17:47:54;;;;;;;1.90;1.70;;;19.20;91.30;;;;;;5075408;28;20052;-68
2021/04/10 17:50:21;;;;;;;2.17;1.55;;;19.10;91.30;;;;;;5076101;28;20024;-70
2021/04/10 17:52:48;;;;;;;3.08;1.70;;;19.10;91.30;;;;;;5077716;28;20063;-71
2021/04/10 17:55:18;;;;;;;5.20;1.90;;;19.00;91.40;;;;;;5081128;28;20028;-73
2021/04/10 17:57:45;;;;;;;2.63;1.63;;;19.00;91.40;;;;;;5075899;28;20042;-70
2021/04/10 18:00:14;;;;;;;2.50;2.00;;;18.90;91.50;;;;;;5076733;28;20544;-66
2021/04/10 18:02:40;;;;;;;2.22;1.77;;;18.90;91.40;;;;;;5078357;28;20032;-67
2021/04/10 18:05:06;;;;;;;4.18;2.08;;;18.90;91.40;;;;;;5067733;28;20477;-66
2021/04/10 18:07:32;;;;;;;3.03;2.20;;;18.90;91.50;;;;;;5080104;28;20024;-70
2021/04/10 18:09:57;;;;;;;3.22;1.90;;;18.80;91.50;;;;;;5076846;28;20586;-68
2021/04/10 18:12:23;;;;;;;2.58;1.80;;;18.80;91.50;;;;;;5064534;28;20108;-65
2021/04/10 18:14:49;;;;;;;3.60;2.13;;;18.80;91.60;;;;;;5080198;28;20034;-66
2021/04/10 18:17:15;;;;;;;4.50;2.08;;;18.80;91.60;;;;;;5073663;28;20074;-66
2021/04/10 18:19:41;;;;;;;2.95;2.40;;;18.80;91.60;;;;;;5084102;28;20032;-65
2021/04/10 18:22:08;;;;;;;3.75;2.20;;;18.80;91.70;;;;;;5088193;28;20021;-65
2021/04/10 18:24:35;;;;;;;2.28;2.08;;;18.80;91.70;;;;;;5076043;28;20082;-65
2021/04/10 18:27:01;;;;;;;6.13;2.13;;;18.80;91.80;;;;;;5077149;28;20056;-64
2021/04/10 18:29:28;;;;;;;3.95;2.13;;;18.80;91.80;;;;;;5075899;28;20067;-68
2021/04/10 18:31:54;;;;;;;4.07;2.42;;;18.80;91.80;;;;;;5092278;28;20044;-65
2021/04/10 18:34:20;;;;;;;2.58;2.10;;;18.70;91.80;;;;;;5079225;28;20516;-64
2021/04/10 18:36:45;;;;;;;2.67;2.30;;;18.80;91.80;;;;;;5073799;28;20028;-67
2021/04/10 18:39:11;;;;;;;2.33;2.03;;;18.70;91.70;;;;;;5078159;28;20033;-64
2021/04/10 18:41:37;;;;;;;2.67;2.10;;;18.70;91.80;;;;;;5076078;28;20025;-64
2021/04/10 18:44:03;;;;;;;3.50;2.10;;;18.70;91.80;;;;;;5074832;28;20544;-65
2021/04/10 18:46:29;;;;;;;2.33;2.08;;;18.70;91.80;;;;;;5080004;28;20447;-66
2021/04/10 18:48:55;;;;;;;4.65;2.00;;;18.70;91.80;;;;;;5074833;28;20036;-65
2021/04/10 18:51:25;;;;;;;2.25;2.05;;;18.70;91.90;;;;;;5074051;28;20028;-67
2021/04/10 18:53:51;;;;;;;2.40;2.20;;;18.60;91.80;;;;;;5091359;28;20039;-68
2021/04/10 18:56:22;;;;;;;2.38;2.03;;;18.70;91.80;;;;;;5085742;28;20021;-66
2021/04/10 18:58:51;;;;;;;2.80;2.53;;;18.60;91.80;;;;;;5084016;28;20020;-68
2021/04/10 19:01:17;;;;;;;3.67;2.20;;;18.60;91.80;;;;;;5075819;28;20024;-66
2021/04/10 19:03:43;;;;;;;2.50;1.92;;;18.60;91.90;;;;;;5060354;28;20020;-66
2021/04/10 19:06:08;;;;;;;2.47;2.00;;;18.60;91.80;;;;;;5073801;28;20029;-65
2021/04/10 19:08:36;;;;;;;3.50;2.17;;;18.60;91.90;;;;;;5085146;28;20102;-66
2021/04/10 19:11:04;;;;;;;2.35;2.10;;;18.60;91.80;;;;;;5073358;28;20020;-67
2021/04/10 19:13:33;;;;;;;2.05;1.92;;;18.50;91.70;;;;;;5077821;28;20037;-64
2021/04/10 19:15:59;;;;;;;3.15;2.10;;;18.50;91.70;;;;;;5079370;28;20118;-63
2021/04/10 19:18:25;;;;;;;2.70;2.30;;;18.50;91.70;;;;;;5085548;28;20480;-65
2021/04/10 19:20:51;;;;;;;2.47;2.00;;;18.50;91.70;;;;;;5082698;28;20426;-64
2021/04/10 19:23:18;;;;;;;2.63;2.10;;;18.50;92.00;;;;;;5079457;28;20036;-65
2021/04/10 19:25:45;;;;;;;3.65;2.03;;;18.50;91.70;;;;;;5078005;28;20051;-65
2021/04/10 19:28:14;;;;;;;3.05;2.53;;;18.50;91.80;;;;;;5073484;28;20035;-64
2021/04/10 19:30:40;;;;;;;2.90;2.10;;;18.40;91.80;;;;;;5082591;28;20032;-65
2021/04/10 19:33:23;;;;;;;2.60;2.20;;;18.50;91.90;;;;;;5073540;28;20046;-67
2021/04/10 19:35:57;;;;;;;3.03;2.40;;;18.40;91.90;;;;;;5078509;28;20048;-66
2021/04/10 19:38:23;;;;;;;2.80;2.15;;;18.40;92.00;;;;;;5053569;28;20057;-64
2021/04/10 19:40:49;;;;;;;3.92;2.13;;;18.40;92.00;;;;;;5068520;28;20028;-64
2021/04/10 19:43:23;;;;;;;4.10;2.20;;;18.40;92.10;;;;;;5074571;28;20093;-63
2021/04/10 19:45:52;;;;;;;2.20;2.00;;;18.30;92.10;;;;;;5081976;28;20484;-65
2021/04/10 19:48:17;;;;;;;2.42;2.10;;;18.40;92.00;;;;;;5073290;28;20495;-63
2021/04/10 19:50:43;;;;;;;3.08;2.25;;;18.30;91.90;;;;;;5073300;28;20027;-64
2021/04/10 19:53:10;;;;;;;2.95;2.10;;;18.30;92.20;;;;;;5084557;28;20035;-64
2021/04/10 19:55:35;;;;;;;5.15;2.22;;;18.30;92.10;;;;;;5075158;28;20063;-64
2021/04/10 19:58:01;;;;;;;3.35;2.03;;;18.30;92.10;;;;;;5063666;28;20052;-63
2021/04/10 20:00:27;;;;;;;3.03;2.35;;;18.20;92.00;;;;;;5080444;28;20052;-64
2021/04/10 20:02:52;;;;;;;4.40;2.17;;;18.20;92.00;;;;;;5073500;28;20028;-64
2021/04/10 20:05:18;;;;;;;3.35;2.15;;;18.20;92.10;;;;;;5073088;28;20054;-63
2021/04/10 20:07:43;;;;;;;1.95;1.70;;;18.20;92.20;;;;;;5072242;28;20055;-63
2021/04/10 20:10:10;;;;;;;2.50;1.92;;;18.20;92.20;;;;;;5077454;28;20028;-63
2021/04/10 20:12:36;;;;;;;4.18;2.30;;;18.20;92.20;;;;;;5091894;28;20020;-64
2021/04/10 20:15:02;;;;;;;2.85;2.05;;;18.10;92.10;;;;;;5052947;28;20481;-64
2021/04/10 20:17:28;;;;;;;2.30;2.10;;;18.10;92.20;;;;;;5052727;28;20461;-67
2021/04/10 20:19:53;;;;;;;2.70;2.00;;;18.10;92.20;;;;;;5066927;28;20032;-69
2021/04/10 20:22:19;;;;;;;2.83;2.45;;;18.10;92.20;;;;;;5072766;28;20024;-68
2021/04/10 20:24:45;;;;;;;3.70;2.63;;;18.00;92.30;;;;;;5072605;28;20451;-66
2021/04/10 20:27:11;;;;;;;3.22;2.58;;;18.00;92.30;;;;;;5072860;28;20043;-65
2021/04/10 20:29:36;;;;;;;2.58;2.38;;;18.00;92.30;;;;;;5073183;28;20035;-63
2021/04/10 20:32:03;;;;;;;3.28;2.30;;;18.00;92.30;;;;;;5072044;28;20385;-64
2021/04/10 20:34:29;;;;;;;2.58;2.38;;;17.90;92.20;;;;;;5074392;28;20032;-66
2021/04/10 20:36:56;;;;;;;2.85;2.47;;;17.90;92.20;;;;;;5074273;28;20044;-67
2021/04/10 20:39:29;;;;;;;2.83;2.50;;;17.80;92.20;;;;;;5074410;28;20046;-67
2021/04/10 20:42:09;;;;;;;3.28;2.85;;;17.80;92.20;;;;;;5080106;28;20434;-68
2021/04/10 20:44:36;;;;;;;3.15;2.40;;;17.80;92.40;;;;;;5072273;28;20028;-67
2021/04/10 20:47:02;;;;;;;3.47;2.22;;;17.80;92.10;;;;;;5078747;28;20054;-65
2021/04/10 20:49:28;;;;;;;2.55;2.13;;;17.80;92.10;;;;;;5052288;28;20048;-63
2021/04/10 20:51:54;;;;;;;2.53;2.33;;;17.70;92.00;;;;;;5052278;28;20504;-63
2021/04/10 20:54:21;;;;;;;3.45;2.30;;;17.70;92.00;;;;;;5069842;28;20052;-66
2021/04/10 20:56:48;;;;;;;2.70;2.13;;;17.70;91.90;;;;;;5060960;28;20113;-64
2021/04/10 20:59:14;;;;;;;3.30;2.45;;;17.70;91.90;;;;;;5052221;28;20025;-64
2021/04/10 21:01:40;;;;;;;2.88;2.10;;;17.60;92.00;;;;;;5052296;28;20024;-67
2021/04/10 21:04:07;;;;;;;2.40;2.20;;;17.60;91.90;;;;;;5051931;28;20025;-63
2021/04/10 21:06:34;;;;;;;2.50;2.15;;;17.60;91.80;;;;;;5070789;28;20066;-66
2021/04/10 21:08:59;;;;;;;2.50;2.30;;;17.60;91.80;;;;;;5071948;28;20032;-64
2021/04/10 21:11:26;;;;;;;2.40;2.10;;;17.50;91.80;;;;;;5053178;28;20036;-66
2021/04/10 21:13:53;;;;;;;2.58;2.22;;;17.50;91.70;;;;;;5051993;28;20037;-64
2021/04/10 21:16:18;;;;;;;2.42;2.22;;;17.50;92.00;;;;;;5051708;28;20088;-66
2021/04/10 21:18:44;;;;;;;3.95;2.20;;;17.50;91.70;;;;;;5051958;28;20033;-64
2021/04/10 21:21:10;;;;;;;2.30;2.10;;;17.40;91.70;;;;;;5068771;28;20024;-64
2021/04/10 21:23:44;;;;;;;2.40;2.20;;;17.40;91.70;;;;;;5070785;28;20400;-64
2021/04/10 21:26:12;;;;;;;2.20;1.98;;;17.40;91.60;;;;;;5071379;28;20044;-64
2021/04/10 21:28:37;;;;;;;3.33;2.00;;;17.40;91.60;;;;;;5071636;28;20373;-62
2021/04/10 21:31:07;;;;;;;3.25;2.20;;;17.30;91.50;;;;;;5071617;28;20016;-62
2021/04/10 21:33:59;;;;;;;3.45;2.20;;;17.30;91.50;;;;;;5071724;28;20079;-65
2021/04/10 21:36:28;;;;;;;2.40;2.15;;;17.30;91.50;;;;;;5068694;28;20035;-63
2021/04/10 21:38:54;;;;;;;2.78;2.35;;;17.30;91.50;;;;;;5053676;28;20028;-65
2021/04/10 21:41:22;;;;;;;2.50;2.20;;;17.20;91.50;;;;;;5071636;28;20029;-65
2021/04/10 21:43:47;;;;;;;3.55;2.17;;;17.20;91.40;;;;;;5070472;28;20049;-64
2021/04/10 21:46:16;;;;;;;2.83;2.17;;;17.20;91.40;;;;;;5089877;28;20146;-64
2021/04/10 21:48:42;;;;;;;2.30;2.10;;;17.20;91.40;;;;;;5084875;28;20028;-63
2021/04/10 21:51:10;;;;;;;3.05;2.20;;;17.20;91.40;;;;;;5090474;28;20024;-65
2021/04/10 21:53:36;;;;;;;2.53;2.33;;;17.10;91.40;;;;;;5087101;28;20040;-65
2021/04/10 21:56:02;;;;;;;3.28;2.30;;;17.10;91.30;;;;;;5088316;28;20028;-64
2021/04/10 21:58:28;;;;;;;2.30;2.10;;;17.10;91.30;;;;;;5089948;28;20487;-67
2021/04/10 22:00:59;;;;;;;3.00;2.10;;;17.10;91.30;;;;;;5086111;28;20024;-63
2021/04/10 22:03:27;;;;;;;2.47;2.00;;;17.10;91.30;;;;;;5083671;28;20020;-66
2021/04/10 22:05:55;;;;;;;2.42;2.22;;;17.10;91.30;;;;;;5073491;28;20020;-67
2021/04/10 22:08:21;;;;;;;2.25;2.03;;;17.00;91.30;;;;;;5071042;28;20031;-69
2021/04/10 22:10:47;;;;;;;2.25;2.00;;;17.00;91.30;;;;;;5058853;28;20103;-63
2021/04/10 22:13:14;;;;;;;2.55;1.85;;;17.00;91.30;;;;;;5072401;28;20072;-67